sensor_id;sensor_type;location;lat;lon;timestamp;P1;durP1;ratioP1;P2;durP2;ratioP2
2998;SDS011;1509;51.964;7.628;2023-08-08T00:01:30;5.27;;;3.93;;
2998;SDS011;1509;51.964;7.628;2023-08-08T00:03:55;5.10;;;4.10;;
2998;SDS011;1509;51.964;7.628;2023-08-08T00:06:21;4.97;;;4.47;;
2998;SDS011;1509;51.964;7.628;2023-08-08T00:08:47;7.87;;;4.20;;
2998;SDS011;1509;51.964;7.628;2023-08-08T00:11:12;5.97;;;4.00;;
2998;SDS011;1509;51.964;7.628;2023-08-08T00:13:38;7.07;;;4.53;;
2998;SDS011;1509;51.964;7.628;2023-08-08T00:16:04;5.97;;;3.83;;
2998;SDS011;1509;51.964;7.628;2023-08-08T00:18:30;6.23;;;3.87;;
2998;SDS011;1509;51.964;7.628;2023-08-08T00:20:55;5.20;;;3.40;;
2998;SDS011;1509;51.964;7.628;2023-08-08T00:23:21;4.10;;;3.60;;
2998;SDS011;1509;51.964;7.628;2023-08-08T00:25:46;7.43;;;3.73;;
2998;SDS011;1509;51.964;7.628;2023-08-08T00:28:15;4.57;;;3.63;;
2998;SDS011;1509;51.964;7.628;2023-08-08T00:30:41;7.50;;;3.83;;
2998;SDS011;1509;51.964;7.628;2023-08-08T00:33:06;4.43;;;3.80;;
2998;SDS011;1509;51.964;7.628;2023-08-08T00:35:35;5.20;;;3.33;;
2998;SDS011;1509;51.964;7.628;2023-08-08T00:38:00;4.97;;;4.47;;
2998;SDS011;1509;51.964;7.628;2023-08-08T00:40:26;5.03;;;3.43;;
2998;SDS011;1509;51.964;7.628;2023-08-08T00:42:51;7.73;;;3.50;;
2998;SDS011;1509;51.964;7.628;2023-08-08T00:45:17;6.33;;;3.90;;
2998;SDS011;1509;51.964;7.628;2023-08-08T00:47:43;4.60;;;3.23;;
2998;SDS011;1509;51.964;7.628;2023-08-08T00:50:08;6.07;;;3.73;;
2998;SDS011;1509;51.964;7.628;2023-08-08T00:52:35;7.27;;;3.90;;
2998;SDS011;1509;51.964;7.628;2023-08-08T00:55:03;5.80;;;3.03;;
2998;SDS011;1509;51.964;7.628;2023-08-08T00:57:29;5.03;;;3.67;;
2998;SDS011;1509;51.964;7.628;2023-08-08T00:59:55;4.03;;;3.30;;
2998;SDS011;1509;51.964;7.628;2023-08-08T01:02:21;4.27;;;3.50;;
2998;SDS011;1509;51.964;7.628;2023-08-08T01:04:46;5.33;;;3.97;;
2998;SDS011;1509;51.964;7.628;2023-08-08T01:12:32;6.07;;;4.00;;
2998;SDS011;1509;51.964;7.628;2023-08-08T01:15:03;6.57;;;4.30;;
2998;SDS011;1509;51.964;7.628;2023-08-08T01:17:31;11.67;;;4.63;;
2998;SDS011;1509;51.964;7.628;2023-08-08T01:19:57;5.10;;;4.30;;
2998;SDS011;1509;51.964;7.628;2023-08-08T01:22:25;5.93;;;3.97;;
2998;SDS011;1509;51.964;7.628;2023-08-08T01:25:02;6.93;;;4.50;;
2998;SDS011;1509;51.964;7.628;2023-08-08T01:27:30;5.47;;;4.10;;
2998;SDS011;1509;51.964;7.628;2023-08-08T01:29:55;6.17;;;4.60;;
2998;SDS011;1509;51.964;7.628;2023-08-08T01:32:21;3.83;;;3.40;;
2998;SDS011;1509;51.964;7.628;2023-08-08T01:34:47;6.03;;;3.77;;
2998;SDS011;1509;51.964;7.628;2023-08-08T01:37:23;5.63;;;4.17;;
2998;SDS011;1509;51.964;7.628;2023-08-08T01:39:56;5.60;;;3.70;;
2998;SDS011;1509;51.964;7.628;2023-08-08T01:42:24;5.20;;;3.40;;
2998;SDS011;1509;51.964;7.628;2023-08-08T01:44:50;4.57;;;3.67;;
2998;SDS011;1509;51.964;7.628;2023-08-08T01:47:17;4.10;;;3.10;;
2998;SDS011;1509;51.964;7.628;2023-08-08T01:49:43;3.67;;;3.07;;
2998;SDS011;1509;51.964;7.628;2023-08-08T01:52:08;5.63;;;3.80;;
2998;SDS011;1509;51.964;7.628;2023-08-08T01:54:34;9.53;;;3.57;;
2998;SDS011;1509;51.964;7.628;2023-08-08T01:57:00;3.80;;;2.83;;
2998;SDS011;1509;51.964;7.628;2023-08-08T01:59:25;6.23;;;3.30;;
2998;SDS011;1509;51.964;7.628;2023-08-08T02:01:51;7.27;;;4.30;;
2998;SDS011;1509;51.964;7.628;2023-08-08T02:04:16;7.33;;;3.50;;
2998;SDS011;1509;51.964;7.628;2023-08-08T02:06:42;8.57;;;4.40;;
2998;SDS011;1509;51.964;7.628;2023-08-08T02:09:08;5.77;;;4.97;;
2998;SDS011;1509;51.964;7.628;2023-08-08T02:11:33;6.93;;;4.87;;
2998;SDS011;1509;51.964;7.628;2023-08-08T02:13:59;7.70;;;5.50;;
2998;SDS011;1509;51.964;7.628;2023-08-08T02:16:24;5.10;;;4.60;;
2998;SDS011;1509;51.964;7.628;2023-08-08T02:18:50;8.40;;;5.77;;
2998;SDS011;1509;51.964;7.628;2023-08-08T02:21:15;7.83;;;6.37;;
2998;SDS011;1509;51.964;7.628;2023-08-08T02:23:41;8.80;;;6.30;;
2998;SDS011;1509;51.964;7.628;2023-08-08T02:26:07;9.40;;;7.57;;
2998;SDS011;1509;51.964;7.628;2023-08-08T02:28:32;12.03;;;5.90;;
2998;SDS011;1509;51.964;7.628;2023-08-08T02:30:59;7.23;;;6.47;;
2998;SDS011;1509;51.964;7.628;2023-08-08T02:33:24;10.43;;;6.20;;
2998;SDS011;1509;51.964;7.628;2023-08-08T02:35:50;12.77;;;7.47;;
2998;SDS011;1509;51.964;7.628;2023-08-08T02:38:16;8.00;;;6.80;;
2998;SDS011;1509;51.964;7.628;2023-08-08T02:40:44;9.10;;;6.83;;
2998;SDS011;1509;51.964;7.628;2023-08-08T02:43:10;9.90;;;6.73;;
2998;SDS011;1509;51.964;7.628;2023-08-08T02:45:36;10.47;;;6.90;;
2998;SDS011;1509;51.964;7.628;2023-08-08T02:48:01;10.10;;;6.50;;
2998;SDS011;1509;51.964;7.628;2023-08-08T02:50:27;9.60;;;6.17;;
2998;SDS011;1509;51.964;7.628;2023-08-08T02:52:53;8.80;;;6.30;;
2998;SDS011;1509;51.964;7.628;2023-08-08T02:55:18;8.53;;;6.50;;
2998;SDS011;1509;51.964;7.628;2023-08-08T02:57:44;8.73;;;6.50;;
2998;SDS011;1509;51.964;7.628;2023-08-08T03:00:10;14.27;;;6.87;;
2998;SDS011;1509;51.964;7.628;2023-08-08T03:02:36;11.70;;;6.00;;
2998;SDS011;1509;51.964;7.628;2023-08-08T03:05:02;9.03;;;5.87;;
2998;SDS011;1509;51.964;7.628;2023-08-08T03:07:29;8.63;;;5.60;;
2998;SDS011;1509;51.964;7.628;2023-08-08T03:09:55;12.30;;;6.10;;
2998;SDS011;1509;51.964;7.628;2023-08-08T03:12:20;8.70;;;6.03;;
2998;SDS011;1509;51.964;7.628;2023-08-08T03:14:46;11.30;;;7.27;;
2998;SDS011;1509;51.964;7.628;2023-08-08T03:17:11;11.93;;;6.87;;
2998;SDS011;1509;51.964;7.628;2023-08-08T03:19:37;8.90;;;5.77;;
2998;SDS011;1509;51.964;7.628;2023-08-08T03:22:03;8.17;;;5.97;;
2998;SDS011;1509;51.964;7.628;2023-08-08T03:24:28;8.50;;;5.00;;
2998;SDS011;1509;51.964;7.628;2023-08-08T03:26:54;7.97;;;6.70;;
2998;SDS011;1509;51.964;7.628;2023-08-08T03:29:20;9.53;;;5.90;;
2998;SDS011;1509;51.964;7.628;2023-08-08T03:31:46;8.87;;;5.90;;
2998;SDS011;1509;51.964;7.628;2023-08-08T03:34:11;9.27;;;6.70;;
2998;SDS011;1509;51.964;7.628;2023-08-08T03:36:37;12.13;;;6.20;;
2998;SDS011;1509;51.964;7.628;2023-08-08T03:39:02;9.93;;;6.73;;
2998;SDS011;1509;51.964;7.628;2023-08-08T03:41:28;7.57;;;5.90;;
2998;SDS011;1509;51.964;7.628;2023-08-08T03:43:54;8.50;;;6.20;;
2998;SDS011;1509;51.964;7.628;2023-08-08T03:46:21;11.33;;;6.67;;
2998;SDS011;1509;51.964;7.628;2023-08-08T03:48:47;10.40;;;6.27;;
2998;SDS011;1509;51.964;7.628;2023-08-08T03:51:13;9.70;;;6.50;;
2998;SDS011;1509;51.964;7.628;2023-08-08T03:53:38;9.77;;;5.93;;
2998;SDS011;1509;51.964;7.628;2023-08-08T03:56:04;8.97;;;6.00;;
2998;SDS011;1509;51.964;7.628;2023-08-08T03:58:30;9.20;;;6.90;;
2998;SDS011;1509;51.964;7.628;2023-08-08T04:00:55;8.73;;;5.90;;
2998;SDS011;1509;51.964;7.628;2023-08-08T04:03:21;10.60;;;6.70;;
2998;SDS011;1509;51.964;7.628;2023-08-08T04:05:47;9.93;;;6.63;;
2998;SDS011;1509;51.964;7.628;2023-08-08T04:08:14;10.27;;;6.70;;
2998;SDS011;1509;51.964;7.628;2023-08-08T04:10:40;9.23;;;5.77;;
2998;SDS011;1509;51.964;7.628;2023-08-08T04:13:06;9.13;;;5.40;;
2998;SDS011;1509;51.964;7.628;2023-08-08T04:15:31;8.47;;;6.03;;
2998;SDS011;1509;51.964;7.628;2023-08-08T04:17:57;13.43;;;5.80;;
2998;SDS011;1509;51.964;7.628;2023-08-08T04:20:22;12.73;;;6.00;;
2998;SDS011;1509;51.964;7.628;2023-08-08T04:22:48;9.20;;;5.93;;
2998;SDS011;1509;51.964;7.628;2023-08-08T04:25:14;7.70;;;6.27;;
2998;SDS011;1509;51.964;7.628;2023-08-08T04:27:40;10.77;;;6.33;;
2998;SDS011;1509;51.964;7.628;2023-08-08T04:30:06;10.20;;;6.00;;
2998;SDS011;1509;51.964;7.628;2023-08-08T04:32:32;9.17;;;5.83;;
2998;SDS011;1509;51.964;7.628;2023-08-08T04:34:58;11.93;;;6.33;;
2998;SDS011;1509;51.964;7.628;2023-08-08T04:37:23;9.60;;;5.10;;
2998;SDS011;1509;51.964;7.628;2023-08-08T04:39:49;9.40;;;5.87;;
2998;SDS011;1509;51.964;7.628;2023-08-08T04:42:15;9.50;;;6.07;;
2998;SDS011;1509;51.964;7.628;2023-08-08T04:44:40;6.90;;;5.00;;
2998;SDS011;1509;51.964;7.628;2023-08-08T04:47:08;9.73;;;6.80;;
2998;SDS011;1509;51.964;7.628;2023-08-08T04:49:34;7.40;;;5.30;;
2998;SDS011;1509;51.964;7.628;2023-08-08T04:52:00;7.73;;;5.63;;
2998;SDS011;1509;51.964;7.628;2023-08-08T04:54:25;10.20;;;5.70;;
2998;SDS011;1509;51.964;7.628;2023-08-08T04:56:51;6.47;;;5.10;;
2998;SDS011;1509;51.964;7.628;2023-08-08T04:59:16;7.17;;;4.90;;
2998;SDS011;1509;51.964;7.628;2023-08-08T05:01:42;7.20;;;5.27;;
2998;SDS011;1509;51.964;7.628;2023-08-08T05:04:08;8.70;;;5.40;;
2998;SDS011;1509;51.964;7.628;2023-08-08T05:06:34;7.80;;;5.20;;
2998;SDS011;1509;51.964;7.628;2023-08-08T05:09:00;9.07;;;5.73;;
2998;SDS011;1509;51.964;7.628;2023-08-08T05:11:26;9.23;;;5.33;;
2998;SDS011;1509;51.964;7.628;2023-08-08T05:13:51;9.60;;;5.23;;
2998;SDS011;1509;51.964;7.628;2023-08-08T05:16:17;6.63;;;4.60;;
2998;SDS011;1509;51.964;7.628;2023-08-08T05:18:47;9.03;;;4.83;;
2998;SDS011;1509;51.964;7.628;2023-08-08T05:21:13;8.60;;;5.60;;
2998;SDS011;1509;51.964;7.628;2023-08-08T05:23:38;8.70;;;6.07;;
2998;SDS011;1509;51.964;7.628;2023-08-08T05:26:04;11.20;;;5.97;;
2998;SDS011;1509;51.964;7.628;2023-08-08T05:28:30;12.03;;;5.60;;
2998;SDS011;1509;51.964;7.628;2023-08-08T05:30:55;10.17;;;5.30;;
2998;SDS011;1509;51.964;7.628;2023-08-08T05:33:21;6.60;;;5.73;;
2998;SDS011;1509;51.964;7.628;2023-08-08T05:35:47;13.53;;;6.10;;
2998;SDS011;1509;51.964;7.628;2023-08-08T05:38:13;8.60;;;7.10;;
2998;SDS011;1509;51.964;7.628;2023-08-08T05:40:39;7.20;;;5.40;;
2998;SDS011;1509;51.964;7.628;2023-08-08T05:43:05;8.03;;;6.20;;
2998;SDS011;1509;51.964;7.628;2023-08-08T05:45:30;13.60;;;6.40;;
2998;SDS011;1509;51.964;7.628;2023-08-08T05:47:56;13.90;;;7.33;;
2998;SDS011;1509;51.964;7.628;2023-08-08T05:50:22;13.10;;;6.67;;
2998;SDS011;1509;51.964;7.628;2023-08-08T05:52:48;12.30;;;7.87;;
2998;SDS011;1509;51.964;7.628;2023-08-08T05:55:14;12.70;;;8.23;;
2998;SDS011;1509;51.964;7.628;2023-08-08T05:57:39;11.40;;;8.27;;
2998;SDS011;1509;51.964;7.628;2023-08-08T06:00:05;11.93;;;8.07;;
2998;SDS011;1509;51.964;7.628;2023-08-08T06:02:33;12.23;;;9.33;;
2998;SDS011;1509;51.964;7.628;2023-08-08T06:04:59;13.87;;;8.20;;
2998;SDS011;1509;51.964;7.628;2023-08-08T06:07:24;17.27;;;10.30;;
2998;SDS011;1509;51.964;7.628;2023-08-08T06:09:50;15.10;;;10.50;;
2998;SDS011;1509;51.964;7.628;2023-08-08T06:12:18;24.60;;;11.10;;
2998;SDS011;1509;51.964;7.628;2023-08-08T06:14:44;23.53;;;12.00;;
2998;SDS011;1509;51.964;7.628;2023-08-08T06:17:09;16.57;;;10.87;;
2998;SDS011;1509;51.964;7.628;2023-08-08T06:19:35;13.87;;;10.20;;
2998;SDS011;1509;51.964;7.628;2023-08-08T06:22:00;21.23;;;12.80;;
2998;SDS011;1509;51.964;7.628;2023-08-08T06:24:29;20.23;;;11.23;;
2998;SDS011;1509;51.964;7.628;2023-08-08T06:26:55;16.50;;;12.33;;
2998;SDS011;1509;51.964;7.628;2023-08-08T06:29:21;16.53;;;11.80;;
2998;SDS011;1509;51.964;7.628;2023-08-08T06:31:46;14.43;;;11.43;;
2998;SDS011;1509;51.964;7.628;2023-08-08T06:34:20;18.50;;;10.90;;
2998;SDS011;1509;51.964;7.628;2023-08-08T06:36:46;20.87;;;11.23;;
2998;SDS011;1509;51.964;7.628;2023-08-08T06:39:12;16.23;;;11.30;;
2998;SDS011;1509;51.964;7.628;2023-08-08T06:41:40;17.10;;;10.97;;
2998;SDS011;1509;51.964;7.628;2023-08-08T06:44:07;16.30;;;11.67;;
2998;SDS011;1509;51.964;7.628;2023-08-08T06:46:33;17.90;;;11.13;;
2998;SDS011;1509;51.964;7.628;2023-08-08T06:48:59;18.63;;;12.13;;
2998;SDS011;1509;51.964;7.628;2023-08-08T06:51:26;14.43;;;11.27;;
2998;SDS011;1509;51.964;7.628;2023-08-08T06:53:51;22.60;;;11.60;;
2998;SDS011;1509;51.964;7.628;2023-08-08T06:56:17;20.50;;;11.00;;
2998;SDS011;1509;51.964;7.628;2023-08-08T06:58:43;15.60;;;11.87;;
2998;SDS011;1509;51.964;7.628;2023-08-08T07:01:09;12.90;;;10.70;;
2998;SDS011;1509;51.964;7.628;2023-08-08T07:03:35;17.57;;;9.77;;
2998;SDS011;1509;51.964;7.628;2023-08-08T07:06:02;15.87;;;10.27;;
2998;SDS011;1509;51.964;7.628;2023-08-08T07:08:28;15.40;;;11.03;;
2998;SDS011;1509;51.964;7.628;2023-08-08T07:10:54;20.20;;;11.30;;
2998;SDS011;1509;51.964;7.628;2023-08-08T07:13:21;19.97;;;10.77;;
2998;SDS011;1509;51.964;7.628;2023-08-08T07:15:47;18.30;;;10.87;;
2998;SDS011;1509;51.964;7.628;2023-08-08T07:18:13;18.53;;;10.37;;
2998;SDS011;1509;51.964;7.628;2023-08-08T07:20:39;18.73;;;11.60;;
2998;SDS011;1509;51.964;7.628;2023-08-08T07:23:04;14.53;;;11.70;;
2998;SDS011;1509;51.964;7.628;2023-08-08T07:25:30;15.33;;;10.50;;
2998;SDS011;1509;51.964;7.628;2023-08-08T07:27:56;15.60;;;10.50;;
2998;SDS011;1509;51.964;7.628;2023-08-08T07:30:21;15.50;;;10.50;;
2998;SDS011;1509;51.964;7.628;2023-08-08T07:32:47;16.23;;;11.53;;
2998;SDS011;1509;51.964;7.628;2023-08-08T07:35:13;17.13;;;10.83;;
2998;SDS011;1509;51.964;7.628;2023-08-08T07:37:40;19.97;;;11.77;;
2998;SDS011;1509;51.964;7.628;2023-08-08T07:40:17;14.70;;;10.50;;
2998;SDS011;1509;51.964;7.628;2023-08-08T07:42:44;12.90;;;9.90;;
2998;SDS011;1509;51.964;7.628;2023-08-08T07:45:11;13.70;;;10.73;;
2998;SDS011;1509;51.964;7.628;2023-08-08T07:47:36;19.10;;;11.20;;
2998;SDS011;1509;51.964;7.628;2023-08-08T07:50:02;20.00;;;11.30;;
2998;SDS011;1509;51.964;7.628;2023-08-08T07:52:28;15.47;;;10.87;;
2998;SDS011;1509;51.964;7.628;2023-08-08T07:54:53;24.60;;;13.13;;
2998;SDS011;1509;51.964;7.628;2023-08-08T07:57:19;17.43;;;12.00;;
2998;SDS011;1509;51.964;7.628;2023-08-08T07:59:44;14.67;;;12.17;;
2998;SDS011;1509;51.964;7.628;2023-08-08T08:02:10;18.60;;;13.23;;
2998;SDS011;1509;51.964;7.628;2023-08-08T08:04:36;17.03;;;12.83;;
2998;SDS011;1509;51.964;7.628;2023-08-08T08:07:01;19.70;;;13.53;;
2998;SDS011;1509;51.964;7.628;2023-08-08T08:09:27;18.57;;;12.13;;
2998;SDS011;1509;51.964;7.628;2023-08-08T08:11:53;17.33;;;12.57;;
2998;SDS011;1509;51.964;7.628;2023-08-08T08:14:19;16.87;;;12.27;;
2998;SDS011;1509;51.964;7.628;2023-08-08T08:16:46;16.90;;;13.37;;
2998;SDS011;1509;51.964;7.628;2023-08-08T08:19:12;20.00;;;12.20;;
2998;SDS011;1509;51.964;7.628;2023-08-08T08:21:38;21.93;;;12.73;;
2998;SDS011;1509;51.964;7.628;2023-08-08T08:24:04;21.80;;;12.27;;
2998;SDS011;1509;51.964;7.628;2023-08-08T08:26:30;18.03;;;11.20;;
2998;SDS011;1509;51.964;7.628;2023-08-08T08:28:57;18.47;;;10.53;;
2998;SDS011;1509;51.964;7.628;2023-08-08T08:31:23;19.83;;;10.70;;
2998;SDS011;1509;51.964;7.628;2023-08-08T08:33:48;11.33;;;9.33;;
2998;SDS011;1509;51.964;7.628;2023-08-08T08:36:14;16.20;;;9.70;;
2998;SDS011;1509;51.964;7.628;2023-08-08T08:38:40;10.50;;;7.90;;
2998;SDS011;1509;51.964;7.628;2023-08-08T08:41:05;16.10;;;8.80;;
2998;SDS011;1509;51.964;7.628;2023-08-08T08:43:31;10.93;;;7.67;;
2998;SDS011;1509;51.964;7.628;2023-08-08T08:45:57;10.23;;;6.90;;
2998;SDS011;1509;51.964;7.628;2023-08-08T08:48:26;12.00;;;6.80;;
2998;SDS011;1509;51.964;7.628;2023-08-08T08:50:52;9.97;;;6.90;;
2998;SDS011;1509;51.964;7.628;2023-08-08T08:53:18;8.47;;;6.07;;
2998;SDS011;1509;51.964;7.628;2023-08-08T08:55:45;10.07;;;5.50;;
2998;SDS011;1509;51.964;7.628;2023-08-08T08:58:14;11.60;;;5.87;;
2998;SDS011;1509;51.964;7.628;2023-08-08T09:00:42;7.00;;;4.60;;
2998;SDS011;1509;51.964;7.628;2023-08-08T09:03:09;7.80;;;4.70;;
2998;SDS011;1509;51.964;7.628;2023-08-08T09:05:35;8.40;;;5.50;;
2998;SDS011;1509;51.964;7.628;2023-08-08T09:08:03;4.57;;;3.70;;
2998;SDS011;1509;51.964;7.628;2023-08-08T09:10:30;8.67;;;4.70;;
2998;SDS011;1509;51.964;7.628;2023-08-08T09:12:56;7.80;;;4.07;;
2998;SDS011;1509;51.964;7.628;2023-08-08T09:15:22;4.40;;;3.07;;
2998;SDS011;1509;51.964;7.628;2023-08-08T09:17:48;4.40;;;3.00;;
2998;SDS011;1509;51.964;7.628;2023-08-08T09:20:14;7.73;;;3.20;;
2998;SDS011;1509;51.964;7.628;2023-08-08T09:22:40;9.13;;;2.83;;
2998;SDS011;1509;51.964;7.628;2023-08-08T09:25:06;6.40;;;2.93;;
2998;SDS011;1509;51.964;7.628;2023-08-08T09:27:33;4.13;;;2.47;;
2998;SDS011;1509;51.964;7.628;2023-08-08T09:29:59;3.10;;;2.30;;
2998;SDS011;1509;51.964;7.628;2023-08-08T09:32:31;5.20;;;2.70;;
2998;SDS011;1509;51.964;7.628;2023-08-08T09:34:57;6.83;;;2.43;;
2998;SDS011;1509;51.964;7.628;2023-08-08T09:37:23;4.73;;;2.20;;
2998;SDS011;1509;51.964;7.628;2023-08-08T09:39:56;9.70;;;2.70;;
2998;SDS011;1509;51.964;7.628;2023-08-08T09:42:26;2.83;;;1.80;;
2998;SDS011;1509;51.964;7.628;2023-08-08T09:44:53;3.60;;;1.97;;
2998;SDS011;1509;51.964;7.628;2023-08-08T09:47:20;4.43;;;2.40;;
2998;SDS011;1509;51.964;7.628;2023-08-08T09:49:47;4.50;;;2.10;;
2998;SDS011;1509;51.964;7.628;2023-08-08T09:52:13;6.50;;;2.13;;
2998;SDS011;1509;51.964;7.628;2023-08-08T09:54:40;4.17;;;1.90;;
2998;SDS011;1509;51.964;7.628;2023-08-08T09:57:07;3.97;;;1.90;;
2998;SDS011;1509;51.964;7.628;2023-08-08T09:59:33;6.10;;;1.87;;
2998;SDS011;1509;51.964;7.628;2023-08-08T10:01:59;2.40;;;1.53;;
2998;SDS011;1509;51.964;7.628;2023-08-08T10:04:26;2.20;;;1.53;;
2998;SDS011;1509;51.964;7.628;2023-08-08T10:06:52;2.93;;;2.03;;
2998;SDS011;1509;51.964;7.628;2023-08-08T10:09:17;5.33;;;1.80;;
2998;SDS011;1509;51.964;7.628;2023-08-08T10:11:43;5.90;;;1.93;;
2998;SDS011;1509;51.964;7.628;2023-08-08T10:14:11;6.37;;;1.90;;
2998;SDS011;1509;51.964;7.628;2023-08-08T10:16:37;4.40;;;1.73;;
2998;SDS011;1509;51.964;7.628;2023-08-08T10:19:06;4.07;;;1.77;;
2998;SDS011;1509;51.964;7.628;2023-08-08T10:21:35;3.40;;;1.80;;
2998;SDS011;1509;51.964;7.628;2023-08-08T10:24:08;4.20;;;1.90;;
2998;SDS011;1509;51.964;7.628;2023-08-08T10:29:25;3.63;;;2.07;;
2998;SDS011;1509;51.964;7.628;2023-08-08T10:32:21;3.37;;;1.90;;
2998;SDS011;1509;51.964;7.628;2023-08-08T10:34:46;4.90;;;1.83;;
2998;SDS011;1509;51.964;7.628;2023-08-08T10:37:13;3.10;;;1.80;;
2998;SDS011;1509;51.964;7.628;2023-08-08T10:42:26;4.17;;;1.63;;
2998;SDS011;1509;51.964;7.628;2023-08-08T10:44:56;2.13;;;1.33;;
2998;SDS011;1509;51.964;7.628;2023-08-08T10:47:33;4.57;;;1.40;;
2998;SDS011;1509;51.964;7.628;2023-08-08T10:52:31;2.57;;;1.53;;
2998;SDS011;1509;51.964;7.628;2023-08-08T10:55:00;2.77;;;1.60;;
2998;SDS011;1509;51.964;7.628;2023-08-08T10:57:26;2.07;;;1.37;;
2998;SDS011;1509;51.964;7.628;2023-08-08T10:59:52;5.13;;;1.77;;
2998;SDS011;1509;51.964;7.628;2023-08-08T11:02:19;4.30;;;1.90;;
2998;SDS011;1509;51.964;7.628;2023-08-08T11:04:45;3.90;;;1.30;;
2998;SDS011;1509;51.964;7.628;2023-08-08T11:07:13;2.47;;;1.33;;
2998;SDS011;1509;51.964;7.628;2023-08-08T11:09:39;2.40;;;1.60;;
2998;SDS011;1509;51.964;7.628;2023-08-08T11:12:05;4.23;;;1.83;;
2998;SDS011;1509;51.964;7.628;2023-08-08T11:14:34;6.70;;;1.30;;
2998;SDS011;1509;51.964;7.628;2023-08-08T11:17:00;2.23;;;1.40;;
2998;SDS011;1509;51.964;7.628;2023-08-08T11:19:26;3.30;;;1.60;;
2998;SDS011;1509;51.964;7.628;2023-08-08T11:21:51;2.80;;;1.80;;
2998;SDS011;1509;51.964;7.628;2023-08-08T11:24:17;2.30;;;1.20;;
2998;SDS011;1509;51.964;7.628;2023-08-08T11:26:45;2.40;;;1.30;;
2998;SDS011;1509;51.964;7.628;2023-08-08T11:29:12;2.80;;;1.40;;
2998;SDS011;1509;51.964;7.628;2023-08-08T11:31:37;3.03;;;1.47;;
2998;SDS011;1509;51.964;7.628;2023-08-08T11:34:04;4.70;;;1.30;;
2998;SDS011;1509;51.964;7.628;2023-08-08T11:36:30;2.90;;;1.40;;
2998;SDS011;1509;51.964;7.628;2023-08-08T11:39:03;3.50;;;1.50;;
2998;SDS011;1509;51.964;7.628;2023-08-08T11:41:34;5.53;;;2.13;;
2998;SDS011;1509;51.964;7.628;2023-08-08T11:44:02;3.57;;;1.57;;
2998;SDS011;1509;51.964;7.628;2023-08-08T11:46:29;6.10;;;1.63;;
2998;SDS011;1509;51.964;7.628;2023-08-08T11:49:01;4.43;;;1.53;;
2998;SDS011;1509;51.964;7.628;2023-08-08T11:51:28;3.27;;;1.40;;
2998;SDS011;1509;51.964;7.628;2023-08-08T11:53:53;2.53;;;1.40;;
2998;SDS011;1509;51.964;7.628;2023-08-08T11:56:19;4.00;;;1.50;;
2998;SDS011;1509;51.964;7.628;2023-08-08T11:58:47;3.90;;;1.73;;
2998;SDS011;1509;51.964;7.628;2023-08-08T12:01:15;3.50;;;1.30;;
2998;SDS011;1509;51.964;7.628;2023-08-08T12:03:42;2.67;;;1.40;;
2998;SDS011;1509;51.964;7.628;2023-08-08T12:06:11;7.33;;;1.30;;
2998;SDS011;1509;51.964;7.628;2023-08-08T12:08:41;5.30;;;1.50;;
2998;SDS011;1509;51.964;7.628;2023-08-08T12:11:08;3.97;;;1.33;;
2998;SDS011;1509;51.964;7.628;2023-08-08T12:13:36;4.77;;;1.40;;
2998;SDS011;1509;51.964;7.628;2023-08-08T12:16:04;1.63;;;1.23;;
2998;SDS011;1509;51.964;7.628;2023-08-08T12:18:31;3.60;;;1.33;;
2998;SDS011;1509;51.964;7.628;2023-08-08T12:20:57;3.23;;;1.53;;
2998;SDS011;1509;51.964;7.628;2023-08-08T12:23:23;2.60;;;1.47;;
2998;SDS011;1509;51.964;7.628;2023-08-08T12:25:51;3.20;;;1.47;;
2998;SDS011;1509;51.964;7.628;2023-08-08T12:28:18;3.20;;;1.37;;
2998;SDS011;1509;51.964;7.628;2023-08-08T12:30:44;2.60;;;1.60;;
2998;SDS011;1509;51.964;7.628;2023-08-08T12:33:12;2.23;;;1.30;;
2998;SDS011;1509;51.964;7.628;2023-08-08T12:35:38;2.40;;;1.40;;
2998;SDS011;1509;51.964;7.628;2023-08-08T12:38:04;6.83;;;1.57;;
2998;SDS011;1509;51.964;7.628;2023-08-08T12:40:29;3.80;;;1.17;;
2998;SDS011;1509;51.964;7.628;2023-08-08T12:42:55;2.67;;;1.20;;
2998;SDS011;1509;51.964;7.628;2023-08-08T12:45:21;1.63;;;1.00;;
2998;SDS011;1509;51.964;7.628;2023-08-08T12:47:47;2.77;;;1.13;;
2998;SDS011;1509;51.964;7.628;2023-08-08T12:50:12;4.00;;;1.20;;
2998;SDS011;1509;51.964;7.628;2023-08-08T12:52:39;4.53;;;2.13;;
2998;SDS011;1509;51.964;7.628;2023-08-08T12:55:05;2.53;;;1.10;;
2998;SDS011;1509;51.964;7.628;2023-08-08T12:57:32;2.20;;;1.30;;
2998;SDS011;1509;51.964;7.628;2023-08-08T12:59:58;2.00;;;1.30;;
2998;SDS011;1509;51.964;7.628;2023-08-08T13:02:23;3.30;;;1.43;;
2998;SDS011;1509;51.964;7.628;2023-08-08T13:04:49;3.30;;;1.40;;
2998;SDS011;1509;51.964;7.628;2023-08-08T13:07:15;5.80;;;1.33;;
2998;SDS011;1509;51.964;7.628;2023-08-08T13:09:41;2.23;;;1.30;;
2998;SDS011;1509;51.964;7.628;2023-08-08T13:12:07;2.87;;;1.67;;
2998;SDS011;1509;51.964;7.628;2023-08-08T13:14:32;2.83;;;1.33;;
2998;SDS011;1509;51.964;7.628;2023-08-08T13:16:58;2.43;;;1.33;;
2998;SDS011;1509;51.964;7.628;2023-08-08T13:19:24;2.87;;;1.30;;
2998;SDS011;1509;51.964;7.628;2023-08-08T13:21:53;4.97;;;2.10;;
2998;SDS011;1509;51.964;7.628;2023-08-08T13:24:19;4.03;;;1.40;;
2998;SDS011;1509;51.964;7.628;2023-08-08T13:26:51;3.63;;;1.50;;
2998;SDS011;1509;51.964;7.628;2023-08-08T13:29:16;2.63;;;1.33;;
2998;SDS011;1509;51.964;7.628;2023-08-08T13:31:42;2.53;;;1.40;;
2998;SDS011;1509;51.964;7.628;2023-08-08T13:34:08;3.00;;;1.60;;
2998;SDS011;1509;51.964;7.628;2023-08-08T13:36:34;3.07;;;1.40;;
2998;SDS011;1509;51.964;7.628;2023-08-08T13:39:00;2.57;;;1.43;;
2998;SDS011;1509;51.964;7.628;2023-08-08T13:41:26;1.77;;;1.20;;
2998;SDS011;1509;51.964;7.628;2023-08-08T13:43:51;2.00;;;1.20;;
2998;SDS011;1509;51.964;7.628;2023-08-08T13:46:17;2.10;;;1.10;;
2998;SDS011;1509;51.964;7.628;2023-08-08T13:48:43;2.33;;;1.13;;
2998;SDS011;1509;51.964;7.628;2023-08-08T13:51:08;2.00;;;1.17;;
2998;SDS011;1509;51.964;7.628;2023-08-08T13:53:34;3.57;;;1.57;;
2998;SDS011;1509;51.964;7.628;2023-08-08T13:56:00;4.23;;;1.40;;
2998;SDS011;1509;51.964;7.628;2023-08-08T13:58:25;2.30;;;1.20;;
2998;SDS011;1509;51.964;7.628;2023-08-08T14:00:51;2.70;;;1.10;;
2998;SDS011;1509;51.964;7.628;2023-08-08T14:03:17;5.03;;;1.30;;
2998;SDS011;1509;51.964;7.628;2023-08-08T14:05:43;2.47;;;1.20;;
2998;SDS011;1509;51.964;7.628;2023-08-08T14:08:09;2.67;;;1.33;;
2998;SDS011;1509;51.964;7.628;2023-08-08T14:10:36;2.47;;;1.60;;
2998;SDS011;1509;51.964;7.628;2023-08-08T14:13:02;2.20;;;1.40;;
2998;SDS011;1509;51.964;7.628;2023-08-08T14:15:28;2.67;;;1.50;;
2998;SDS011;1509;51.964;7.628;2023-08-08T14:17:54;2.17;;;1.30;;
2998;SDS011;1509;51.964;7.628;2023-08-08T14:20:20;3.33;;;1.43;;
2998;SDS011;1509;51.964;7.628;2023-08-08T14:22:45;2.57;;;1.40;;
2998;SDS011;1509;51.964;7.628;2023-08-08T14:25:12;3.60;;;1.60;;
2998;SDS011;1509;51.964;7.628;2023-08-08T14:27:38;3.90;;;1.50;;
2998;SDS011;1509;51.964;7.628;2023-08-08T14:30:04;2.10;;;1.30;;
2998;SDS011;1509;51.964;7.628;2023-08-08T14:32:30;3.37;;;1.53;;
2998;SDS011;1509;51.964;7.628;2023-08-08T14:34:55;1.80;;;1.43;;
2998;SDS011;1509;51.964;7.628;2023-08-08T14:37:21;2.30;;;1.53;;
2998;SDS011;1509;51.964;7.628;2023-08-08T14:39:47;2.83;;;1.63;;
2998;SDS011;1509;51.964;7.628;2023-08-08T14:42:18;2.50;;;1.50;;
2998;SDS011;1509;51.964;7.628;2023-08-08T14:44:45;2.73;;;1.43;;
2998;SDS011;1509;51.964;7.628;2023-08-08T14:47:13;3.10;;;1.80;;
2998;SDS011;1509;51.964;7.628;2023-08-08T14:49:39;4.80;;;1.80;;
2998;SDS011;1509;51.964;7.628;2023-08-08T14:52:05;2.53;;;1.70;;
2998;SDS011;1509;51.964;7.628;2023-08-08T14:54:31;2.40;;;1.40;;
2998;SDS011;1509;51.964;7.628;2023-08-08T14:56:56;2.50;;;1.53;;
2998;SDS011;1509;51.964;7.628;2023-08-08T14:59:23;2.70;;;1.87;;
2998;SDS011;1509;51.964;7.628;2023-08-08T15:01:48;2.37;;;1.70;;
2998;SDS011;1509;51.964;7.628;2023-08-08T15:04:14;3.40;;;1.70;;
2998;SDS011;1509;51.964;7.628;2023-08-08T15:06:40;5.23;;;1.63;;
2998;SDS011;1509;51.964;7.628;2023-08-08T15:09:06;3.17;;;2.00;;
2998;SDS011;1509;51.964;7.628;2023-08-08T15:11:32;2.40;;;1.67;;
2998;SDS011;1509;51.964;7.628;2023-08-08T15:13:58;2.53;;;1.70;;
2998;SDS011;1509;51.964;7.628;2023-08-08T15:16:23;4.70;;;1.87;;
2998;SDS011;1509;51.964;7.628;2023-08-08T15:18:49;2.07;;;1.50;;